Terminal Aerodrome Forecast
Issued by NWS

Home | Current Version | Previous Version | Text Only | Print | Product List | Glossary On
Versions: 1 2 3 4 5 6 7 8 9 10 11 12 13 14 15 16 17 18 19 20 21 22 23 24 25 26 27 28 29 30 31 32
910
FTUS43 KDVN 031120
TAFBRL
TAF
KBRL 031120Z 0312/0412 28004KT P6SM SKC
     FM031500 27008KT P6SM FEW250
     FM031900 28010G16KT P6SM SCT250
     FM040200 27010KT P6SM BKN100 PROB30 0403/0407 5SM -SHRA BKN050
     FM040800 32011KT P6SM SKC=

USA.gov is the U.S. government's official web portal to all federal, state and local government web resources and services.